Time,TemperatureF,DewpointF,PressureIn,WindDirection,WindDirectionDegrees,WindSpeedMPH,WindSpeedGustMPH,Humidity,HourlyPrecipIn,Conditions,Clouds,dailyrainin,SoftwareType,DateUTC
2013-10-22 00:01:00,72.9,71.4,29.94,NNW,345,0.0,0.0,95,0.00,CLR,,0.00,WeatherDisplay:10.37,2013-10-22 04:01:00,
2013-10-22 00:02:00,72.9,71.4,29.94,NNW,345,0.0,0.0,95,0.00,CLR,,0.00,WeatherDisplay:10.37,2013-10-22 04:02:00,
2013-10-22 00:07:00,72.8,71.3,29.93,NNW,345,0.0,0.0,95,0.00,CLR,,0.00,WeatherDisplay:10.37,2013-10-22 04:07:00,
2013-10-22 00:12:00,72.9,71.4,29.94,NNW,345,0.0,0.0,95,0.00,CLR,,0.00,WeatherDisplay:10.37,2013-10-22 04:12:00,
2013-10-22 00:17:00,72.9,71.4,29.94,NNW,345,0.0,0.0,95,0.00,CLR,,0.00,WeatherDisplay:10.37,2013-10-22 04:17:00,
2013-10-22 00:22:00,72.8,71.3,29.94,NNW,345,0.0,0.0,95,0.00,CLR,,0.00,WeatherDisplay:10.37,2013-10-22 04:22:00,
2013-10-22 00:27:00,72.8,71.3,29.93,NNW,345,0.0,0.0,95,0.00,CLR,,0.00,WeatherDisplay:10.37,2013-10-22 04:27:00,
2013-10-22 00:32:00,73.1,71.9,29.93,NNW,344,0.0,0.0,96,0.00,CLR,,0.00,WeatherDisplay:10.37,2013-10-22 04:32:00,
2013-10-22 00:37:00,73.3,71.8,29.93,NNW,345,0.0,0.0,95,0.00,CLR,,0.00,WeatherDisplay:10.37,2013-10-22 04:37:00,
2013-10-22 00:42:00,73.1,71.6,29.93,NNW,345,0.0,0.0,95,0.00,CLR,,0.00,WeatherDisplay:10.37,2013-10-22 04:42:00,
2013-10-22 00:47:00,72.9,71.4,29.93,NNW,345,0.0,0.0,95,0.00,CLR,,0.00,WeatherDisplay:10.37,2013-10-22 04:47:00,
2013-10-22 00:52:00,72.9,71.4,29.93,NNW,345,0.0,0.0,95,0.00,CLR,,0.00,WeatherDisplay:10.37,2013-10-22 04:52:00,
2013-10-22 00:57:00,72.7,71.2,29.93,NNW,345,0.0,0.0,95,0.00,CLR,,0.00,WeatherDisplay:10.37,2013-10-22 04:57:00,
2013-10-22 01:02:00,72.6,71.1,29.93,NNW,345,0.0,0.0,95,0.00,CLR,,0.00,WeatherDisplay:10.37,2013-10-22 05:02:00,
2013-10-22 01:07:00,72.4,70.9,29.93,NNW,345,0.0,0.0,95,0.00,CLR,,0.00,WeatherDisplay:10.37,2013-10-22 05:07:00,
2013-10-22 01:12:00,72.4,71.2,29.92,NNW,345,0.0,0.0,96,0.00,CLR,,0.00,WeatherDisplay:10.37,2013-10-22 05:12:00,
2013-10-22 01:17:00,72.3,70.8,29.92,NNW,345,0.0,0.0,95,0.00,CLR,,0.00,WeatherDisplay:10.37,2013-10-22 05:17:00,
2013-10-22 01:22:00,72.1,70.6,29.92,NNW,345,0.0,0.0,95,0.00,CLR,,0.00,WeatherDisplay:10.37,2013-10-22 05:22:00,
2013-10-22 01:27:00,71.9,70.4,29.92,NNW,345,0.0,0.0,95,0.00,CLR,,0.00,WeatherDisplay:10.37,2013-10-22 05:27:00,
2013-10-22 01:32:00,72.1,70.9,29.92,NNW,345,0.0,0.0,96,0.00,CLR,,0.00,WeatherDisplay:10.37,2013-10-22 05:32:00,
2013-10-22 01:37:00,72.3,71.1,29.92,NNW,345,0.0,0.0,96,0.00,CLR,,0.00,WeatherDisplay:10.37,2013-10-22 05:37:00,
2013-10-22 01:42:00,72.3,71.1,29.92,NNW,345,0.0,0.0,96,0.00,CLR,,0.00,WeatherDisplay:10.37,2013-10-22 05:42:00,
2013-10-22 01:47:00,72.4,71.2,29.92,NNW,346,0.0,0.0,96,0.00,CLR,,0.00,WeatherDisplay:10.37,2013-10-22 05:47:00,
2013-10-22 01:52:00,72.3,71.1,29.92,NNW,345,0.0,0.0,96,0.00,CLR,,0.00,WeatherDisplay:10.37,2013-10-22 05:52:00,
2013-10-22 01:57:00,72.1,70.9,29.92,NNW,345,0.0,0.0,96,0.00,CLR,,0.00,WeatherDisplay:10.37,2013-10-22 05:57:00,
2013-10-22 02:02:00,72.0,70.8,29.92,NNW,345,0.0,0.0,96,0.00,CLR,,0.00,WeatherDisplay:10.37,2013-10-22 06:02:00,
2013-10-22 02:07:00,72.0,70.8,29.92,NNW,345,0.0,0.0,96,0.00,CLR,,0.00,WeatherDisplay:10.37,2013-10-22 06:07:00,
2013-10-22 02:12:00,71.8,70.6,29.92,NNW,345,0.0,0.0,96,0.00,CLR,,0.00,WeatherDisplay:10.37,2013-10-22 06:12:00,
2013-10-22 02:17:00,72.2,71.3,29.91,NNW,345,0.0,0.0,97,0.00,CLR,,0.00,WeatherDisplay:10.37,2013-10-22 06:17:00,
2013-10-22 02:22:00,72.1,70.9,29.91,NNW,345,0.0,0.0,96,0.00,CLR,,0.00,WeatherDisplay:10.37,2013-10-22 06:22:00,
2013-10-22 02:27:00,72.0,70.8,29.91,NNW,345,0.0,0.0,96,0.00,CLR,,0.00,WeatherDisplay:10.37,2013-10-22 06:27:00,
2013-10-22 02:32:00,71.8,70.6,29.91,NNW,345,0.0,0.0,96,0.00,CLR,,0.00,WeatherDisplay:10.37,2013-10-22 06:32:00,
2013-10-22 02:37:00,71.7,70.5,29.91,NNW,345,0.0,0.0,96,0.00,CLR,,0.00,WeatherDisplay:10.37,2013-10-22 06:37:00,
2013-10-22 02:42:00,71.5,70.3,29.91,NNW,345,0.0,0.0,96,0.00,CLR,,0.00,WeatherDisplay:10.37,2013-10-22 06:42:00,
2013-10-22 02:47:00,71.4,70.2,29.91,NNW,345,0.0,0.0,96,0.00,CLR,,0.00,WeatherDisplay:10.37,2013-10-22 06:47:00,
2013-10-22 02:52:00,71.2,70.0,29.91,NNW,345,0.0,0.0,96,0.00,CLR,,0.00,WeatherDisplay:10.37,2013-10-22 06:52:00,
2013-10-22 02:57:00,71.2,70.3,29.90,NNW,345,0.0,0.0,97,0.00,CLR,,0.00,WeatherDisplay:10.37,2013-10-22 06:57:00,
2013-10-22 03:02:00,71.2,70.3,29.90,NNW,345,0.0,0.0,97,0.00,CLR,,0.00,WeatherDisplay:10.37,2013-10-22 07:02:00,
2013-10-22 03:07:00,71.4,70.5,29.90,NNW,345,0.0,0.0,97,0.00,CLR,,0.00,WeatherDisplay:10.37,2013-10-22 07:07:00,
2013-10-22 03:12:00,71.3,70.4,29.90,NNW,345,0.0,0.0,97,0.00,CLR,,0.00,WeatherDisplay:10.37,2013-10-22 07:12:00,
2013-10-22 03:17:00,71.2,70.3,29.90,NNW,345,0.0,0.0,97,0.00,CLR,,0.00,WeatherDisplay:10.37,2013-10-22 07:17:00,
2013-10-22 03:22:00,71.3,70.4,29.90,NNW,345,0.0,0.0,97,0.00,CLR,,0.00,WeatherDisplay:10.37,2013-10-22 07:22:00,
2013-10-22 03:27:00,71.2,70.3,29.90,NNW,345,0.0,0.0,97,0.00,CLR,,0.00,WeatherDisplay:10.37,2013-10-22 07:27:00,
2013-10-22 03:32:00,71.0,70.1,29.89,NNW,345,0.0,0.0,97,0.00,CLR,,0.00,WeatherDisplay:10.37,2013-10-22 07:32:00,
2013-10-22 03:37:00,70.9,70.0,29.89,NNW,345,0.0,0.0,97,0.00,CLR,,0.00,WeatherDisplay:10.37,2013-10-22 07:37:00,
2013-10-22 03:42:00,71.0,70.1,29.89,NNW,345,0.0,0.0,97,0.00,CLR,,0.00,WeatherDisplay:10.37,2013-10-22 07:42:00,
2013-10-22 03:47:00,71.1,70.2,29.89,NNW,345,0.0,0.0,97,0.00,CLR,,0.00,WeatherDisplay:10.37,2013-10-22 07:47:00,
2013-10-22 03:52:00,70.9,70.0,29.89,NNW,345,0.0,0.0,97,0.00,CLR,,0.00,WeatherDisplay:10.37,2013-10-22 07:52:00,
2013-10-22 03:57:00,70.8,69.9,29.89,NNW,345,0.0,0.0,97,0.00,CLR,,0.00,WeatherDisplay:10.37,2013-10-22 07:57:00,
2013-10-22 04:02:00,70.9,70.0,29.89,NNW,345,0.0,0.0,97,0.00,CLR,,0.00,WeatherDisplay:10.37,2013-10-22 08:02:00,
2013-10-22 04:07:00,70.8,69.9,29.89,NNW,345,0.0,0.0,97,0.00,CLR,,0.00,WeatherDisplay:10.37,2013-10-22 08:07:00,
2013-10-22 04:12:00,70.9,70.0,29.89,NNW,345,0.0,0.0,97,0.00,CLR,,0.00,WeatherDisplay:10.37,2013-10-22 08:12:00,
2013-10-22 04:17:00,70.8,69.9,29.89,NNW,345,0.0,0.0,97,0.00,CLR,,0.00,WeatherDisplay:10.37,2013-10-22 08:17:00,
2013-10-22 04:22:00,70.9,70.0,29.88,NNW,345,0.0,0.0,97,0.00,CLR,,0.00,WeatherDisplay:10.37,2013-10-22 08:22:00,
2013-10-22 04:27:00,71.0,70.4,29.88,NNW,344,0.0,0.0,98,0.00,CLR,,0.00,WeatherDisplay:10.37,2013-10-22 08:27:00,
2013-10-22 04:32:00,71.0,70.4,29.88,NNW,345,0.0,0.0,98,0.00,CLR,,0.00,WeatherDisplay:10.37,2013-10-22 08:32:00,
2013-10-22 04:37:00,70.9,70.0,29.88,NNW,345,0.0,0.0,97,0.00,CLR,,0.00,WeatherDisplay:10.37,2013-10-22 08:37:00,
2013-10-22 04:42:00,70.8,69.9,29.88,NNW,345,0.0,0.0,97,0.00,CLR,,0.00,WeatherDisplay:10.37,2013-10-22 08:42:00,
2013-10-22 04:47:00,70.8,69.9,29.88,NNW,345,0.0,0.0,97,0.00,CLR,,0.00,WeatherDisplay:10.37,2013-10-22 08:47:00,
2013-10-22 04:52:00,70.7,69.8,29.89,NNW,345,0.0,0.0,97,0.00,CLR,,0.00,WeatherDisplay:10.37,2013-10-22 08:52:00,
2013-10-22 04:57:00,70.6,69.7,29.88,NNW,345,0.0,0.0,97,0.00,CLR,,0.00,WeatherDisplay:10.37,2013-10-22 08:57:00,
2013-10-22 05:02:00,70.6,69.7,29.88,NNW,345,0.0,0.0,97,0.00,CLR,,0.00,WeatherDisplay:10.37,2013-10-22 09:02:00,
2013-10-22 05:07:00,70.6,69.7,29.89,NNW,345,0.0,0.0,97,0.00,CLR,,0.00,WeatherDisplay:10.37,2013-10-22 09:07:00,
2013-10-22 05:12:00,70.5,69.6,29.89,NNW,345,0.0,0.0,97,0.00,CLR,,0.00,WeatherDisplay:10.37,2013-10-22 09:12:00,
2013-10-22 05:17:00,70.3,69.4,29.89,NNW,345,0.0,0.0,97,0.00,CLR,,0.00,WeatherDisplay:10.37,2013-10-22 09:17:00,
2013-10-22 05:22:00,70.4,69.8,29.89,NNW,345,0.0,0.0,98,0.00,CLR,,0.00,WeatherDisplay:10.37,2013-10-22 09:22:00,
2013-10-22 05:27:00,70.4,69.8,29.89,NNW,345,0.0,0.0,98,0.00,CLR,,0.00,WeatherDisplay:10.37,2013-10-22 09:27:00,
2013-10-22 05:32:00,70.4,69.8,29.89,NNW,345,0.0,0.0,98,0.00,CLR,,0.00,WeatherDisplay:10.37,2013-10-22 09:32:00,
2013-10-22 05:37:00,70.5,69.9,29.89,NNW,345,0.0,0.0,98,0.00,CLR,,0.00,WeatherDisplay:10.37,2013-10-22 09:37:00,
2013-10-22 05:42:00,70.8,70.2,29.89,NNW,346,0.0,0.0,98,0.00,CLR,,0.00,WeatherDisplay:10.37,2013-10-22 09:42:00,
2013-10-22 05:47:00,70.8,70.2,29.89,NNW,346,0.0,0.0,98,0.00,CLR,,0.00,WeatherDisplay:10.37,2013-10-22 09:47:00,
2013-10-22 05:52:00,70.6,69.7,29.89,NNW,346,0.0,0.0,97,0.00,CLR,,0.00,WeatherDisplay:10.37,2013-10-22 09:52:00,
2013-10-22 05:57:00,70.5,69.6,29.89,NNW,345,0.0,0.0,97,0.00,CLR,,0.00,WeatherDisplay:10.37,2013-10-22 09:57:00,
2013-10-22 06:02:00,70.3,69.4,29.89,NNW,345,0.0,0.0,97,0.00,CLR,,0.00,WeatherDisplay:10.37,2013-10-22 10:02:00,
2013-10-22 06:07:00,70.3,69.4,29.89,NNW,345,0.0,0.0,97,0.00,CLR,,0.00,WeatherDisplay:10.37,2013-10-22 10:07:00,
2013-10-22 06:12:00,70.3,69.7,29.90,NNW,346,0.0,0.0,98,0.00,CLR,,0.00,WeatherDisplay:10.37,2013-10-22 10:12:00,
2013-10-22 06:17:00,70.2,69.3,29.90,NNW,345,0.0,0.0,97,0.00,CLR,,0.00,WeatherDisplay:10.37,2013-10-22 10:17:00,
2013-10-22 06:22:00,69.9,69.0,29.89,NNW,346,0.0,0.0,97,0.00,CLR,,0.00,WeatherDisplay:10.37,2013-10-22 10:22:00,
2013-10-22 06:27:00,70.0,69.4,29.90,NNW,345,0.0,0.0,98,0.00,CLR,,0.00,WeatherDisplay:10.37,2013-10-22 10:27:00,
2013-10-22 06:32:00,70.0,69.4,29.90,NNW,345,0.0,0.0,98,0.00,CLR,,0.00,WeatherDisplay:10.37,2013-10-22 10:32:00,
2013-10-22 06:37:00,69.8,68.9,29.90,NNW,345,0.0,0.0,97,0.00,CLR,,0.00,WeatherDisplay:10.37,2013-10-22 10:37:00,
2013-10-22 06:42:00,69.7,69.1,29.90,NNW,345,0.0,0.0,98,0.00,CLR,,0.00,WeatherDisplay:10.37,2013-10-22 10:42:00,
2013-10-22 06:47:00,69.7,69.1,29.90,NNW,345,0.0,0.0,98,0.00,CLR,,0.00,WeatherDisplay:10.37,2013-10-22 10:47:00,
2013-10-22 06:52:00,69.7,69.1,29.90,NNW,345,0.0,0.0,98,0.00,CLR,,0.00,WeatherDisplay:10.37,2013-10-22 10:52:00,
2013-10-22 06:57:00,69.5,68.9,29.90,NNW,345,0.0,0.0,98,0.00,CLR,,0.00,WeatherDisplay:10.37,2013-10-22 10:57:00,
2013-10-22 07:02:00,69.6,69.0,29.91,NNW,345,0.0,0.0,98,0.00,CLR,,0.00,WeatherDisplay:10.37,2013-10-22 11:02:00,
2013-10-22 07:07:00,69.8,69.2,29.90,NNW,345,0.0,0.0,98,0.00,CLR,,0.00,WeatherDisplay:10.37,2013-10-22 11:07:00,
2013-10-22 09:04:00,77.1,75.2,29.91,ESE,117,0.0,11.0,94,0.00,CLR,,0.00,WeatherDisplay:10.37,2013-10-22 13:04:00,
2013-10-22 09:09:00,78.0,75.2,29.91,SSE,165,0.1,1.0,91,0.00,CLR,,0.00,WeatherDisplay:10.37,2013-10-22 13:09:00,
2013-10-22 09:14:00,78.6,74.4,29.91,SE,128,1.6,3.5,87,0.00,CLR,,0.00,WeatherDisplay:10.37,2013-10-22 13:14:00,
2013-10-22 09:19:00,79.0,74.8,29.91,SE,124,0.1,1.2,87,0.00,CLR,,0.00,WeatherDisplay:10.37,2013-10-22 13:19:00,
2013-10-22 09:24:00,79.6,74.7,29.91,SE,132,0.0,1.2,85,0.00,CLR,,0.00,WeatherDisplay:10.37,2013-10-22 13:24:00,
2013-10-22 09:29:00,80.2,74.6,29.91,ESE,105,0.7,3.5,83,0.00,CLR,,0.00,WeatherDisplay:10.37,2013-10-22 13:29:00,
2013-10-22 09:34:00,80.5,74.5,29.91,SE,136,0.8,2.3,82,0.00,CLR,,0.00,WeatherDisplay:10.37,2013-10-22 13:34:00,
2013-10-22 09:39:00,80.6,74.2,29.90,SSW,207,2.0,2.3,81,0.00,CLR,,0.00,WeatherDisplay:10.37,2013-10-22 13:39:00,
2013-10-22 09:44:00,80.9,74.5,29.91,SE,143,1.7,3.5,81,0.00,CLR,,0.00,WeatherDisplay:10.37,2013-10-22 13:44:00,
2013-10-22 09:49:00,81.1,74.3,29.90,SE,128,1.2,3.5,80,0.00,CLR,,0.00,WeatherDisplay:10.37,2013-10-22 13:49:00,
2013-10-22 09:54:00,81.1,74.3,29.90,ESE,123,2.7,4.0,80,0.00,CLR,,0.00,WeatherDisplay:10.37,2013-10-22 13:54:00,
2013-10-22 09:59:00,81.1,74.0,29.90,SW,214,2.9,4.6,79,0.00,CLR,,0.00,WeatherDisplay:10.37,2013-10-22 13:59:00,
2013-10-22 10:04:00,81.2,74.1,29.90,ESE,122,1.1,3.5,79,0.00,CLR,,0.00,WeatherDisplay:10.37,2013-10-22 14:04:00,
2013-10-22 10:09:00,81.4,74.3,29.90,SSW,210,2.4,3.5,79,0.00,CLR,,0.00,WeatherDisplay:10.37,2013-10-22 14:09:00,
2013-10-22 10:14:00,81.5,74.7,29.90,SSW,203,0.9,1.2,80,0.00,CLR,,0.00,WeatherDisplay:10.37,2013-10-22 14:14:00,
2013-10-22 10:19:00,81.9,74.4,29.90,ESE,116,2.6,4.0,78,0.00,CLR,,0.00,WeatherDisplay:10.37,2013-10-22 14:19:00,
2013-10-22 10:24:00,82.3,75.1,29.90,SE,132,0.9,2.0,79,0.00,CLR,,0.00,WeatherDisplay:10.37,2013-10-22 14:24:00,
2013-10-22 10:29:00,82.4,74.5,29.90,WSW,239,2.2,3.5,77,0.00,CLR,,0.00,WeatherDisplay:10.37,2013-10-22 14:29:00,
2013-10-22 10:34:00,82.6,74.7,29.90,SSW,212,2.0,4.0,77,0.00,CLR,,0.00,WeatherDisplay:10.37,2013-10-22 14:34:00,
2013-10-22 10:39:00,82.7,74.8,29.90,SW,215,1.8,3.5,77,0.00,CLR,,0.00,WeatherDisplay:10.37,2013-10-22 14:39:00,
2013-10-22 10:44:00,82.5,74.6,29.90,SE,135,4.6,6.0,77,0.00,CLR,,0.00,WeatherDisplay:10.37,2013-10-22 14:44:00,
2013-10-22 10:49:00,82.5,74.6,29.90,SSW,197,2.4,3.5,77,0.00,CLR,,0.00,WeatherDisplay:10.37,2013-10-22 14:49:00,
2013-10-22 10:54:00,82.9,74.6,29.90,SSE,162,2.7,4.6,76,0.00,CLR,,0.00,WeatherDisplay:10.37,2013-10-22 14:54:00,
2013-10-22 10:59:00,83.4,75.0,29.90,SW,235,2.8,6.0,76,0.00,CLR,,0.00,WeatherDisplay:10.37,2013-10-22 14:59:00,
2013-10-22 11:04:00,83.4,75.0,29.90,SSW,200,4.3,6.0,76,0.00,FEW,,0.00,WeatherDisplay:10.37,2013-10-22 15:04:00,
2013-10-22 11:09:00,83.3,74.5,29.90,South,172,5.2,8.0,75,0.00,FEW,,0.00,WeatherDisplay:10.37,2013-10-22 15:09:00,
2013-10-22 11:14:00,83.4,75.0,29.90,SSW,201,0.8,3.5,76,0.00,FEW,,0.00,WeatherDisplay:10.37,2013-10-22 15:14:00,
2013-10-22 11:19:00,83.6,74.8,29.90,South,183,3.8,6.9,75,0.00,FEW,,0.00,WeatherDisplay:10.37,2013-10-22 15:19:00,
2013-10-22 11:24:00,83.7,74.9,29.90,SSE,156,4.3,4.6,75,0.00,FEW,,0.00,WeatherDisplay:10.37,2013-10-22 15:24:00,
2013-10-22 11:29:00,83.9,75.1,29.90,SE,131,3.1,3.5,75,0.00,FEW,,0.00,WeatherDisplay:10.37,2013-10-22 15:29:00,
2013-10-22 11:34:00,83.8,74.6,29.89,SSW,201,5.3,11.5,74,0.00,FEW,,0.00,WeatherDisplay:10.37,2013-10-22 15:34:00,
2013-10-22 11:39:00,83.7,74.9,29.89,East,95,5.3,9.2,75,0.00,FEW,,0.00,WeatherDisplay:10.37,2013-10-22 15:39:00,
2013-10-22 11:44:00,83.7,75.3,29.89,South,188,4.6,8.0,76,0.00,FEW,,0.00,WeatherDisplay:10.37,2013-10-22 15:44:00,
2013-10-22 11:49:00,83.9,75.1,29.89,SW,219,4.0,6.9,75,0.00,FEW,,0.00,WeatherDisplay:10.37,2013-10-22 15:49:00,
2013-10-22 11:54:00,84.1,75.3,29.89,WSW,239,4.5,8.1,75,0.00,FEW,,0.00,WeatherDisplay:10.37,2013-10-22 15:54:00,
2013-10-22 11:59:00,84.3,75.9,29.89,SE,143,6.5,7.0,76,0.00,FEW,,0.00,WeatherDisplay:10.37,2013-10-22 15:59:00,
2013-10-22 12:04:00,84.3,75.9,29.89,SW,221,4.9,5.8,76,0.00,FEW,,0.00,WeatherDisplay:10.37,2013-10-22 16:04:00,
2013-10-22 12:09:00,84.2,75.8,29.89,SW,214,1.7,3.5,76,0.00,FEW,,0.00,WeatherDisplay:10.37,2013-10-22 16:09:00,
2013-10-22 12:14:00,84.8,76.0,29.89,South,188,6.4,11.5,75,0.00,FEW,,0.00,WeatherDisplay:10.37,2013-10-22 16:14:00,
2013-10-22 12:19:00,84.5,76.1,29.89,South,187,4.7,8.1,76,0.00,FEW,,0.00,WeatherDisplay:10.37,2013-10-22 16:19:00,
2013-10-22 12:24:00,84.4,75.6,29.89,South,172,7.3,11.5,75,0.00,FEW,,0.00,WeatherDisplay:10.37,2013-10-22 16:24:00,
2013-10-22 12:29:00,84.8,75.6,29.89,South,182,7.8,10.4,74,0.00,FEW,,0.00,WeatherDisplay:10.37,2013-10-22 16:29:00,
2013-10-22 12:34:00,85.0,75.8,29.89,South,190,6.3,10.4,74,0.00,FEW,,0.00,WeatherDisplay:10.37,2013-10-22 16:34:00,
2013-10-22 12:39:00,85.0,76.2,29.89,West,266,3.3,7.0,75,0.00,FEW,,0.00,WeatherDisplay:10.37,2013-10-22 16:39:00,
2013-10-22 12:44:00,85.1,76.3,29.89,West,269,4.1,6.9,75,0.00,FEW,,0.00,WeatherDisplay:10.37,2013-10-22 16:44:00,
2013-10-22 12:49:00,85.3,76.1,29.89,SSW,205,2.4,5.0,74,0.00,FEW,,0.00,WeatherDisplay:10.37,2013-10-22 16:49:00,
2013-10-22 12:54:00,85.2,76.0,29.88,SSW,212,6.8,11.5,74,0.00,FEW,,0.00,WeatherDisplay:10.37,2013-10-22 16:54:00,
2013-10-22 12:59:00,84.8,76.0,29.88,SW,228,2.6,9.2,75,0.00,FEW,,0.00,WeatherDisplay:10.37,2013-10-22 16:59:00,
2013-10-22 13:04:00,84.8,75.6,29.88,SSE,160,6.9,9.2,74,0.00,FEW,,0.00,WeatherDisplay:10.37,2013-10-22 17:04:00,
2013-10-22 13:09:00,85.1,76.3,29.88,South,189,4.5,12.0,75,0.00,FEW,,0.00,WeatherDisplay:10.37,2013-10-22 17:09:00,
2013-10-22 13:14:00,85.2,76.0,29.88,SW,221,5.9,10.4,74,0.00,CLR,,0.00,WeatherDisplay:10.37,2013-10-22 17:14:00,
2013-10-22 13:19:00,85.3,76.1,29.88,SW,225,7.1,11.5,74,0.00,CLR,,0.00,WeatherDisplay:10.37,2013-10-22 17:19:00,
2013-10-22 13:24:00,85.1,76.3,29.87,South,173,5.0,8.0,75,0.00,CLR,,0.00,WeatherDisplay:10.37,2013-10-22 17:24:00,
2013-10-22 13:29:00,85.2,76.0,29.87,SSW,198,6.9,12.7,74,0.00,CLR,,0.00,WeatherDisplay:10.37,2013-10-22 17:29:00,
2013-10-22 13:34:00,85.0,75.8,29.87,SSW,212,6.0,8.1,74,0.00,CLR,,0.00,WeatherDisplay:10.37,2013-10-22 17:34:00,
2013-10-22 13:39:00,85.0,76.2,29.86,SW,219,3.9,6.9,75,0.00,CLR,,0.00,WeatherDisplay:10.37,2013-10-22 17:39:00,
2013-10-22 13:44:00,85.1,76.3,29.86,SW,214,4.9,10.4,75,0.00,CLR,,0.00,WeatherDisplay:10.37,2013-10-22 17:44:00,
2013-10-22 13:49:00,85.4,76.6,29.86,SSE,153,4.0,8.1,75,0.00,CLR,,0.00,WeatherDisplay:10.37,2013-10-22 17:49:00,
2013-10-22 13:54:00,85.7,76.5,29.86,WSW,239,4.8,6.0,74,0.00,CLR,,0.00,WeatherDisplay:10.37,2013-10-22 17:54:00,
2013-10-22 13:59:00,85.8,76.1,29.86,SW,224,6.2,9.2,73,0.00,CLR,,0.00,WeatherDisplay:10.37,2013-10-22 17:59:00,
2013-10-22 14:04:00,85.6,76.8,29.86,South,190,2.8,4.6,75,0.00,FEW,,0.00,WeatherDisplay:10.37,2013-10-22 18:04:00,
2013-10-22 14:09:00,85.7,76.5,29.86,SSW,203,5.8,11.5,74,0.00,FEW,,0.00,WeatherDisplay:10.37,2013-10-22 18:09:00,
2013-10-22 14:14:00,85.7,76.0,29.86,SSW,203,5.6,10.4,73,0.00,FEW,,0.00,WeatherDisplay:10.37,2013-10-22 18:14:00,
2013-10-22 14:19:00,85.3,76.5,29.85,SW,219,5.4,10.4,75,0.00,FEW,,0.00,WeatherDisplay:10.37,2013-10-22 18:19:00,
2013-10-22 14:24:00,85.2,76.4,29.85,SSE,160,6.2,9.2,75,0.00,FEW,,0.00,WeatherDisplay:10.37,2013-10-22 18:24:00,
2013-10-22 14:29:00,85.7,76.5,29.85,SW,233,6.7,11.5,74,0.00,FEW,,0.00,WeatherDisplay:10.37,2013-10-22 18:29:00,
2013-10-22 14:34:00,86.0,76.7,29.84,WSW,239,6.6,10.4,74,0.00,FEW,,0.00,WeatherDisplay:10.37,2013-10-22 18:34:00,
2013-10-22 14:39:00,85.2,76.4,29.84,SSW,194,4.1,5.8,75,0.00,FEW,,0.00,WeatherDisplay:10.37,2013-10-22 18:39:00,
2013-10-22 14:44:00,85.6,77.2,29.84,SW,215,5.2,9.2,76,0.00,FEW,,0.00,WeatherDisplay:10.37,2013-10-22 18:44:00,
2013-10-22 14:49:00,86.1,76.8,29.84,West,276,6.0,11.5,74,0.00,FEW,,0.00,WeatherDisplay:10.37,2013-10-22 18:49:00,
2013-10-22 14:54:00,85.6,77.2,29.84,South,189,4.0,8.1,76,0.00,FEW,,0.00,WeatherDisplay:10.37,2013-10-22 18:54:00,
2013-10-22 14:59:00,86.3,77.4,29.84,SW,235,4.7,6.9,75,0.00,FEW,,0.00,WeatherDisplay:10.37,2013-10-22 18:59:00,
2013-10-22 15:04:00,85.5,76.7,29.85,South,170,7.9,15.0,75,0.00,FEW,,0.00,WeatherDisplay:10.37,2013-10-22 19:04:00,
2013-10-22 15:09:00,85.1,76.7,29.84,SW,219,5.0,9.2,76,0.00,FEW,,0.00,WeatherDisplay:10.37,2013-10-22 19:09:00,
2013-10-22 15:14:00,85.7,77.3,29.84,SSW,198,4.7,9.2,76,0.00,FEW,,0.00,WeatherDisplay:10.37,2013-10-22 19:14:00,
2013-10-22 15:19:00,85.5,77.1,29.84,SW,226,2.6,5.8,76,0.00,FEW,,0.00,WeatherDisplay:10.37,2013-10-22 19:19:00,
2013-10-22 15:24:00,85.7,77.3,29.84,WSW,238,3.0,6.9,76,0.00,FEW,,0.00,WeatherDisplay:10.37,2013-10-22 19:24:00,
2013-10-22 15:29:00,85.7,77.3,29.84,SSW,194,4.6,6.9,76,0.00,FEW,,0.00,WeatherDisplay:10.37,2013-10-22 19:29:00,
2013-10-22 15:34:00,85.2,77.2,29.84,South,174,7.0,9.2,77,0.00,FEW,,0.00,WeatherDisplay:10.37,2013-10-22 19:34:00,
2013-10-22 15:39:00,85.0,76.6,29.84,South,173,6.7,10.4,76,0.00,FEW,,0.00,WeatherDisplay:10.37,2013-10-22 19:39:00,
2013-10-22 15:44:00,84.8,76.8,29.84,WNW,298,2.6,6.9,77,0.00,FEW,,0.00,WeatherDisplay:10.37,2013-10-22 19:44:00,
2013-10-22 15:49:00,84.8,77.2,29.84,SSW,203,5.6,12.7,78,0.00,FEW,,0.00,WeatherDisplay:10.37,2013-10-22 19:49:00,
2013-10-22 15:54:00,85.0,77.0,29.84,SSW,193,5.4,11.5,77,0.00,FEW,,0.00,WeatherDisplay:10.37,2013-10-22 19:54:00,
2013-10-22 15:59:00,84.8,76.8,29.84,SSW,198,7.2,11.5,77,0.00,FEW,,0.00,WeatherDisplay:10.37,2013-10-22 19:59:00,
2013-10-22 16:04:00,84.8,77.2,29.83,West,270,3.7,8.1,78,0.00,SCT,,0.00,WeatherDisplay:10.37,2013-10-22 20:04:00,
2013-10-22 16:10:00,84.7,76.7,29.83,WSW,254,5.9,11.5,77,0.00,SCT,,0.00,WeatherDisplay:10.37,2013-10-22 20:10:00,
2013-10-22 16:15:00,84.9,76.9,29.83,WSW,239,7.3,11.0,77,0.00,SCT,,0.00,WeatherDisplay:10.37,2013-10-22 20:15:00,
2013-10-22 16:20:00,85.3,76.9,29.83,SW,221,8.0,11.5,76,0.00,SCT,,0.00,WeatherDisplay:10.37,2013-10-22 20:20:00,
2013-10-22 16:25:00,85.4,76.6,29.83,SSW,198,7.5,11.5,75,0.00,SCT,,0.00,WeatherDisplay:10.37,2013-10-22 20:25:00,
2013-10-22 16:30:00,84.8,76.8,29.83,SW,220,1.6,6.0,77,0.00,SCT,,0.00,WeatherDisplay:10.37,2013-10-22 20:30:00,
2013-10-22 16:35:00,83.9,75.5,29.83,South,186,5.1,9.2,76,0.00,SCT,,0.00,WeatherDisplay:10.37,2013-10-22 20:35:00,
2013-10-22 16:40:00,83.2,74.0,29.83,WSW,248,1.9,5.8,74,0.00,SCT,,0.00,WeatherDisplay:10.37,2013-10-22 20:40:00,
2013-10-22 16:45:00,82.7,74.8,29.82,SW,228,0.2,3.5,77,0.00,SCT,,0.00,WeatherDisplay:10.37,2013-10-22 20:45:00,
2013-10-22 16:50:00,82.6,75.8,29.82,South,187,0.9,2.3,80,0.00,SCT,,0.00,WeatherDisplay:10.37,2013-10-22 20:50:00,
2013-10-22 16:55:00,82.8,76.7,29.82,SSW,198,0.6,3.5,82,0.00,SCT,,0.00,WeatherDisplay:10.37,2013-10-22 20:55:00,
2013-10-22 17:00:00,82.8,76.7,29.82,WSW,249,1.1,3.5,82,0.00,SCT,,0.00,WeatherDisplay:10.37,2013-10-22 21:00:00,
2013-10-22 17:05:00,82.8,77.1,29.82,SSW,200,3.4,5.8,83,0.00,SCT,,0.00,WeatherDisplay:10.37,2013-10-22 21:05:00,
2013-10-22 17:10:00,82.8,76.7,29.82,South,184,4.8,10.4,82,0.00,SCT,,0.00,WeatherDisplay:10.37,2013-10-22 21:10:00,
2013-10-22 17:15:00,82.8,76.7,29.82,SSW,211,2.4,3.5,82,0.00,SCT,,0.00,WeatherDisplay:10.37,2013-10-22 21:15:00,
2013-10-22 17:20:00,82.9,76.5,29.82,WSW,250,0.7,2.3,81,0.00,SCT,,0.00,WeatherDisplay:10.37,2013-10-22 21:20:00,
2013-10-22 17:25:00,82.9,76.5,29.82,SW,226,1.6,4.6,81,0.00,BKN,,0.00,WeatherDisplay:10.37,2013-10-22 21:25:00,
2013-10-22 17:30:00,82.8,76.4,29.82,SSW,207,3.5,5.8,81,0.00,BKN,,0.00,WeatherDisplay:10.37,2013-10-22 21:30:00,
2013-10-22 17:35:00,82.6,76.2,29.81,SW,228,1.9,3.5,81,0.00,BKN,,0.00,WeatherDisplay:10.37,2013-10-22 21:35:00,
2013-10-22 17:40:00,82.4,76.3,29.81,SW,224,1.4,2.3,82,0.00,BKN,,0.00,WeatherDisplay:10.37,2013-10-22 21:40:00,
2013-10-22 17:45:00,82.3,76.3,29.81,South,188,3.4,5.0,82,0.00,BKN,,0.00,WeatherDisplay:10.37,2013-10-22 21:45:00,
2013-10-22 17:50:00,82.2,76.2,29.81,SW,214,5.2,9.0,82,0.00,BKN,,0.00,WeatherDisplay:10.37,2013-10-22 21:50:00,
2013-10-22 17:55:00,82.1,76.1,29.81,WNW,298,3.9,4.0,82,0.00,SCT,,0.00,WeatherDisplay:10.37,2013-10-22 21:55:00,
2013-10-22 18:00:00,82.1,76.1,29.81,SW,228,1.0,4.0,82,0.00,SCT,,0.00,WeatherDisplay:10.37,2013-10-22 22:00:00,
2013-10-22 18:05:00,82.2,76.5,29.81,SSW,210,1.1,3.5,83,0.00,FEW,,0.00,WeatherDisplay:10.37,2013-10-22 22:05:00,
2013-10-22 18:10:00,82.1,76.1,29.81,SSW,211,0.1,4.6,82,0.00,FEW,,0.00,WeatherDisplay:10.37,2013-10-22 22:10:00,
2013-10-22 18:15:00,82.0,75.6,29.81,SSW,200,2.5,2.5,81,0.00,FEW,,0.00,WeatherDisplay:10.37,2013-10-22 22:15:00,
2013-10-22 18:20:00,81.9,75.9,29.81,SW,232,2.3,4.6,82,0.00,FEW,,0.00,WeatherDisplay:10.37,2013-10-22 22:20:00,
2013-10-22 18:25:00,81.9,75.9,29.81,SW,229,0.9,2.3,82,0.00,FEW,,0.00,WeatherDisplay:10.37,2013-10-22 22:25:00,
2013-10-22 18:30:00,81.9,76.2,29.81,West,276,0.3,3.5,83,0.00,FEW,,0.00,WeatherDisplay:10.37,2013-10-22 22:30:00,
2013-10-22 18:35:00,81.8,76.1,29.81,SW,218,1.7,4.0,83,0.00,FEW,,0.00,WeatherDisplay:10.37,2013-10-22 22:35:00,
2013-10-22 18:40:00,81.7,76.0,29.81,SW,221,0.3,1.2,83,0.00,FEW,,0.00,WeatherDisplay:10.37,2013-10-22 22:40:00,
2013-10-22 18:45:00,81.6,75.9,29.82,West,260,1.9,3.5,83,0.00,FEW,,0.00,WeatherDisplay:10.37,2013-10-22 22:45:00,
2013-10-22 18:50:00,81.4,75.7,29.82,WNW,285,1.5,3.5,83,0.00,FEW,,0.00,WeatherDisplay:10.37,2013-10-22 22:50:00,
2013-10-22 18:55:00,81.4,75.7,29.82,West,260,0.7,2.3,83,0.00,FEW,,0.00,WeatherDisplay:10.37,2013-10-22 22:55:00,
2013-10-22 19:00:00,81.2,74.8,29.83,West,270,6.7,13.8,81,0.00,FEW,,0.00,WeatherDisplay:10.37,2013-10-22 23:00:00,
2013-10-22 19:05:00,79.0,73.0,29.83,North,356,4.1,11.5,82,0.00,SCT,,0.00,WeatherDisplay:10.37,2013-10-22 23:05:00,
2013-10-22 19:10:00,77.6,72.7,29.83,WNW,295,5.0,10.4,85,0.00,SCT,,0.00,WeatherDisplay:10.37,2013-10-22 23:10:00,
2013-10-22 19:15:00,76.8,72.6,29.84,NNW,330,3.5,6.0,87,0.00,SCT,,0.00,WeatherDisplay:10.37,2013-10-22 23:15:00,
2013-10-22 19:20:00,76.3,72.5,29.84,NW,318,2.0,3.5,88,0.00,SCT,,0.00,WeatherDisplay:10.37,2013-10-22 23:20:00,
2013-10-22 19:25:00,76.1,72.6,29.84,NNW,336,1.2,3.5,89,0.00,BKN,,0.00,WeatherDisplay:10.37,2013-10-22 23:25:00,
2013-10-22 19:30:00,75.9,72.4,29.84,North,11,4.1,11.5,89,0.00,BKN,,0.00,WeatherDisplay:10.37,2013-10-22 23:30:00,
2013-10-22 19:35:00,75.8,72.3,29.84,NNW,340,2.8,3.5,89,0.00,BKN,,0.00,WeatherDisplay:10.37,2013-10-22 23:35:00,
2013-10-22 19:40:00,75.9,72.4,29.84,NW,319,1.8,3.5,89,0.00,BKN,,0.00,WeatherDisplay:10.37,2013-10-22 23:40:00,
2013-10-22 19:45:00,76.1,72.6,29.84,NNW,347,3.0,9.2,89,0.00,BKN,,0.00,WeatherDisplay:10.37,2013-10-22 23:45:00,
2013-10-22 19:50:00,75.9,72.8,29.84,North,9,2.3,4.0,90,0.04,RA,,0.05,WeatherDisplay:10.37,2013-10-22 23:50:00,
2013-10-22 19:55:00,75.4,72.6,29.85,NNE,25,0.0,1.2,91,0.07,RA,,0.07,WeatherDisplay:10.37,2013-10-22 23:55:00,
2013-10-22 20:00:00,75.1,72.6,29.85,NW,322,0.6,1.2,92,0.12,RA,,0.12,WeatherDisplay:10.37,2013-10-23 00:00:00,
2013-10-22 20:05:00,74.9,72.7,29.85,North,349,0.2,2.3,93,0.13,BKN,,0.13,WeatherDisplay:10.37,2013-10-23 00:05:00,
2013-10-22 20:10:00,74.8,73.0,29.85,NNW,340,0.8,2.0,94,0.13,BKN,,0.13,WeatherDisplay:10.37,2013-10-23 00:10:00,
2013-10-22 20:15:00,74.8,73.0,29.85,NNW,340,1.1,2.3,94,0.13,BKN,,0.13,WeatherDisplay:10.37,2013-10-23 00:15:00,
2013-10-22 20:20:00,74.7,72.9,29.86,ENE,63,0.6,3.5,94,0.13,BKN,,0.13,WeatherDisplay:10.37,2013-10-23 00:20:00,
2013-10-22 20:25:00,74.7,72.9,29.85,North,358,0.5,3.5,94,0.13,BKN,,0.13,WeatherDisplay:10.37,2013-10-23 00:25:00,
2013-10-22 20:30:00,74.7,72.9,29.86,NNW,328,2.0,3.5,94,0.14,RA,,0.14,WeatherDisplay:10.37,2013-10-23 00:30:00,
2013-10-22 20:35:00,74.7,73.2,29.88,WNW,286,1.0,1.2,95,0.15,OVC,,0.16,WeatherDisplay:10.37,2013-10-23 00:35:00,
2013-10-22 20:40:00,74.6,73.1,29.88,WSW,255,3.8,9.0,95,0.35,RA,,0.37,WeatherDisplay:10.37,2013-10-23 00:40:00,
2013-10-22 20:45:00,74.0,72.2,29.88,NW,325,2.3,3.5,94,0.56,-RA,,0.57,WeatherDisplay:10.37,2013-10-23 00:45:00,
2013-10-22 20:50:00,73.5,72.0,29.87,NE,49,2.5,5.8,95,0.69,-RA,,0.75,WeatherDisplay:10.37,2013-10-23 00:50:00,
2013-10-22 20:55:00,72.9,71.1,29.87,NW,312,3.6,5.0,94,0.71,-RA,,0.78,WeatherDisplay:10.37,2013-10-23 00:55:00,
2013-10-22 21:00:00,72.4,70.9,29.87,WNW,302,4.0,4.0,95,0.68,-RA,,0.80,WeatherDisplay:10.37,2013-10-23 01:00:00,
2013-10-22 21:05:00,72.3,70.8,29.87,NE,53,0.4,2.3,95,0.69,OVC,,0.82,WeatherDisplay:10.37,2013-10-23 01:05:00,
2013-10-22 21:10:00,72.2,71.0,29.87,NNW,341,1.8,3.5,96,0.71,RA,,0.84,WeatherDisplay:10.37,2013-10-23 01:10:00,
2013-10-22 21:15:00,72.2,71.0,29.87,NW,316,0.5,3.5,96,0.72,OVC,,0.85,WeatherDisplay:10.37,2013-10-23 01:15:00,
2013-10-22 21:20:00,72.2,71.0,29.87,NW,311,0.5,1.2,96,0.73,OVC,,0.86,WeatherDisplay:10.37,2013-10-23 01:20:00,
2013-10-22 21:25:00,72.2,71.0,29.86,NNW,346,0.9,2.3,96,0.73,OVC,,0.86,WeatherDisplay:10.37,2013-10-23 01:25:00,
2013-10-22 21:30:00,72.2,71.0,29.86,NNW,345,1.2,2.3,96,0.72,OVC,,0.86,WeatherDisplay:10.37,2013-10-23 01:30:00,
2013-10-22 21:35:00,72.2,71.0,29.85,NE,37,0.0,0.0,96,0.72,OVC,,0.87,WeatherDisplay:10.37,2013-10-23 01:35:00,
2013-10-22 21:40:00,72.2,71.0,29.85,NE,39,0.0,0.0,96,0.52,OVC,,0.87,WeatherDisplay:10.37,2013-10-23 01:40:00,
2013-10-22 21:45:00,72.2,71.0,29.85,East,94,0.0,0.0,96,0.31,OVC,,0.87,WeatherDisplay:10.37,2013-10-23 01:45:00,
2013-10-22 21:50:00,72.3,71.1,29.85,ESE,111,0.0,0.0,96,0.14,OVC,,0.87,WeatherDisplay:10.37,2013-10-23 01:50:00,
2013-10-22 21:55:00,72.3,71.1,29.84,ESE,114,0.0,0.0,96,0.09,OVC,,0.87,WeatherDisplay:10.37,2013-10-23 01:55:00,
2013-10-22 22:00:00,72.3,71.1,29.85,ESE,115,0.0,0.0,96,0.07,OVC,,0.87,WeatherDisplay:10.37,2013-10-23 02:00:00,
2013-10-22 22:05:00,72.4,71.5,29.85,ESE,115,0.0,0.0,97,0.05,-RA,,0.87,WeatherDisplay:10.37,2013-10-23 02:05:00,
2013-10-22 22:10:00,72.5,71.6,29.85,ESE,114,0.0,0.0,97,0.03,-RA,,0.87,WeatherDisplay:10.37,2013-10-23 02:10:00,
2013-10-22 22:15:00,72.5,71.6,29.85,ESE,114,0.0,0.0,97,0.02,-RA,,0.87,WeatherDisplay:10.37,2013-10-23 02:15:00,
2013-10-22 22:20:00,72.5,71.6,29.85,ESE,115,0.0,0.0,97,0.01,-RA,,0.87,WeatherDisplay:10.37,2013-10-23 02:20:00,
2013-10-22 22:25:00,72.7,71.8,29.84,ESE,114,0.0,0.0,97,0.01,-RA,,0.87,WeatherDisplay:10.37,2013-10-23 02:25:00,
2013-10-22 22:30:00,72.7,71.8,29.85,ESE,115,0.0,0.0,97,0.01,-RA,,0.87,WeatherDisplay:10.37,2013-10-23 02:30:00,
2013-10-22 22:35:00,72.7,71.8,29.84,ESE,114,0.0,0.0,97,0.00,-RA,,0.87,WeatherDisplay:10.37,2013-10-23 02:35:00,
2013-10-22 22:40:00,72.7,71.8,29.84,ESE,115,0.0,0.0,97,0.00,-RA,,0.87,WeatherDisplay:10.37,2013-10-23 02:40:00,
2013-10-22 22:45:00,72.8,71.9,29.84,SE,125,0.0,1.2,97,0.00,-RA,,0.87,WeatherDisplay:10.37,2013-10-23 02:45:00,
2013-10-22 22:50:00,72.8,71.9,29.84,SE,124,0.2,1.2,97,0.00,-RA,,0.87,WeatherDisplay:10.37,2013-10-23 02:50:00,
2013-10-22 22:55:00,72.8,71.9,29.84,SE,143,0.0,1.2,97,0.00,-RA,,0.87,WeatherDisplay:10.37,2013-10-23 02:55:00,
2013-10-22 23:00:00,72.7,71.8,29.84,ESE,119,0.1,1.2,97,0.00,-RA,,0.87,WeatherDisplay:10.37,2013-10-23 03:00:00,
2013-10-22 23:05:00,72.7,71.8,29.83,SE,135,0.4,1.2,97,0.00,CLR,,0.87,WeatherDisplay:10.37,2013-10-23 03:05:00,
2013-10-22 23:11:00,72.7,71.8,29.83,ESE,122,0.4,1.2,97,0.00,CLR,,0.87,WeatherDisplay:10.37,2013-10-23 03:11:00,
2013-10-22 23:16:00,72.5,71.6,29.84,SE,138,0.4,1.2,97,0.00,CLR,,0.87,WeatherDisplay:10.37,2013-10-23 03:16:00,
2013-10-22 23:21:00,72.5,71.6,29.84,SSW,193,0.4,2.0,97,0.00,CLR,,0.87,WeatherDisplay:10.37,2013-10-23 03:21:00,
2013-10-22 23:26:00,72.6,71.7,29.84,SSE,148,0.8,2.0,97,0.00,CLR,,0.87,WeatherDisplay:10.37,2013-10-23 03:26:00,
2013-10-22 23:31:00,72.6,71.7,29.83,SSE,165,1.1,2.3,97,0.00,CLR,,0.87,WeatherDisplay:10.37,2013-10-23 03:31:00,
2013-10-22 23:36:00,72.5,71.6,29.83,SW,226,0.5,1.0,97,0.00,CLR,,0.87,WeatherDisplay:10.37,2013-10-23 03:36:00,
2013-10-22 23:41:00,72.4,71.5,29.83,SE,124,0.3,1.2,97,0.00,CLR,,0.87,WeatherDisplay:10.37,2013-10-23 03:41:00,
2013-10-22 23:46:00,72.4,71.5,29.83,South,177,0.7,2.3,97,0.00,CLR,,0.87,WeatherDisplay:10.37,2013-10-23 03:46:00,
2013-10-22 23:51:00,72.4,71.5,29.83,SSE,165,1.0,2.3,97,0.00,CLR,,0.87,WeatherDisplay:10.37,2013-10-23 03:51:00,
2013-10-22 23:56:00,72.4,71.5,29.83,SSE,148,0.5,1.2,97,0.00,CLR,,0.87,WeatherDisplay:10.37,2013-10-23 03:56:00,